Аэропорт: Хомутово. Южно-Сахалинск

ICAO: UHSS

METAR:
2018/11/21 18:00
UHSS 211800Z 03001MPS 9999 SCT039 M12/M13 Q1018 R01/410565 NOSIG RMK QFE762/1017
METAR:
2018/11/21 18:21
TAF UHSS 211700Z 2118/2224 20003MPS 9999 BKN030CB 
      TEMPO 2118/2210 1400 SHSN BKN004 BKN015CB 
      BECMG 2122/2124 04003MPS